createdAt,value
2019-04-25T00:03:03.508Z,99514.80
2019-04-25T00:06:07.771Z,99510.11
2019-04-25T00:09:13.551Z,99514.03
2019-04-25T00:12:17.869Z,99521.05
2019-04-25T00:15:22.399Z,99534.71
2019-04-25T00:18:26.102Z,99530.84
2019-04-25T00:21:32.064Z,99549.13
2019-04-25T00:24:43.271Z,99548.75
2019-04-25T00:27:48.504Z,99556.38
2019-04-25T00:30:53.109Z,99558.70
2019-04-25T00:33:57.692Z,99565.16
2019-04-25T00:37:03.405Z,99568.19
2019-04-25T00:40:08.127Z,99573.11
2019-04-25T00:43:14.062Z,99585.90
2019-04-25T00:46:19.398Z,99589.61
2019-04-25T00:49:23.688Z,99595.72
2019-04-25T00:52:27.287Z,99592.44
2019-04-25T00:55:31.506Z,99592.62
2019-04-25T00:58:55.672Z,99591.38
2019-04-25T01:02:03.952Z,99594.54
2019-04-25T01:05:07.696Z,99578.75
2019-04-25T01:08:12.044Z,99572.11
2019-04-25T01:11:15.729Z,99563.70
2019-04-25T01:14:19.388Z,99569.09
2019-04-25T01:17:31.722Z,99566.36
2019-04-25T01:20:35.389Z,99564.95
2019-04-25T01:23:43.534Z,99588.12
2019-04-25T01:26:49.628Z,99563.48
2019-04-25T01:30:00.760Z,99594.03
2019-04-25T01:33:06.201Z,99596.09
2019-04-25T01:36:13.361Z,99605.07
2019-04-25T01:39:37.477Z,99595.42
2019-04-25T01:42:43.811Z,99606.36
2019-04-25T01:45:48.246Z,99608.65
2019-04-25T01:48:54.190Z,99605.56
2019-04-25T01:52:01.580Z,99610.48
2019-04-25T01:55:10.099Z,99608.30
2019-04-25T01:58:13.808Z,99607.63
2019-04-25T02:01:18.977Z,99614.38
2019-04-25T02:04:23.158Z,99617.88
2019-04-25T02:07:26.702Z,99630.80
2019-04-25T02:10:31.753Z,99647.41
2019-04-25T02:13:38.132Z,99644.38
2019-04-25T02:16:40.897Z,99639.91
2019-04-25T02:19:44.463Z,99645.65
2019-04-25T02:22:48.026Z,99644.67
2019-04-25T02:26:04.506Z,99657.09
2019-04-25T02:28:57.316Z,99652.76
2019-04-25T02:32:06.016Z,99666.34
2019-04-25T02:35:09.453Z,99666.50
2019-04-25T02:38:16.962Z,99680.05
2019-04-25T02:41:24.825Z,99685.80
2019-04-25T02:44:27.536Z,99697.27
2019-04-25T02:47:35.927Z,99692.47
2019-04-25T02:50:41.087Z,99689.36
2019-04-25T02:53:46.257Z,99692.81
2019-04-25T02:56:51.394Z,99690.67
2019-04-25T02:59:56.896Z,99675.08
2019-04-25T03:06:35.781Z,99676.60
2019-04-25T03:09:42.109Z,99669.34
2019-04-25T03:12:47.316Z,99675.97
2019-04-25T03:15:53.483Z,99682.68
2019-04-25T03:19:02.094Z,99677.02
2019-04-25T03:22:11.848Z,99689.87
2019-04-25T03:25:17.449Z,99691.78
2019-04-25T03:28:23.902Z,99680.54
2019-04-25T03:31:27.488Z,99679.94
2019-04-25T03:34:35.109Z,99689.05
2019-04-25T03:37:40.314Z,99702.47
2019-04-25T03:40:45.580Z,99699.34
2019-04-25T03:43:49.098Z,99702.61
2019-04-25T03:46:54.465Z,99714.48
2019-04-25T03:49:59.900Z,99718.47
2019-04-25T03:53:05.724Z,99724.75
2019-04-25T03:56:11.522Z,99717.14
2019-04-25T03:59:16.138Z,99732.20
2019-04-25T04:02:23.349Z,99739.81
2019-04-25T04:05:28.143Z,99737.91
2019-04-25T04:08:34.339Z,99741.70
2019-04-25T04:11:38.755Z,99750.46
2019-04-25T04:14:46.625Z,99749.17
2019-04-25T04:17:58.983Z,99757.45
2019-04-25T04:21:09.997Z,99750.53
2019-04-25T04:24:18.044Z,99759.00
2019-04-25T04:27:21.848Z,99769.19
2019-04-25T04:30:25.377Z,99764.23
2019-04-25T04:33:43.818Z,99773.48
2019-04-25T04:36:41.823Z,99769.91
2019-04-25T04:39:49.047Z,99781.69
2019-04-25T04:42:55.919Z,99791.12
2019-04-25T04:45:59.434Z,99791.91
2019-04-25T04:49:03.879Z,99792.48
2019-04-25T04:52:08.319Z,99801.88
2019-04-25T04:55:15.764Z,99792.55
2019-04-25T04:58:19.175Z,99793.39
2019-04-25T05:01:24.783Z,99799.29
2019-04-25T05:04:46.368Z,99807.14
2019-04-25T05:07:51.591Z,99806.14
2019-04-25T05:10:57.283Z,99803.47
2019-04-25T05:14:00.341Z,99801.61
2019-04-25T05:17:04.325Z,99807.68
2019-04-25T05:20:08.586Z,99813.59
2019-04-25T05:23:13.417Z,99807.62
2019-04-25T05:26:17.334Z,99793.03
2019-04-25T05:29:23.373Z,99803.70
2019-04-25T05:32:26.417Z,99795.55
2019-04-25T05:35:29.980Z,99816.09
2019-04-25T05:38:33.589Z,99817.11
2019-04-25T05:41:45.434Z,99822.36
2019-04-25T05:44:49.028Z,99817.91
2019-04-25T05:47:54.080Z,99825.25
2019-04-25T05:50:58.051Z,99834.14
2019-04-25T05:54:01.645Z,99842.69
2019-04-25T05:57:05.367Z,99846.44
2019-04-25T06:00:10.681Z,99844.02
2019-04-25T06:03:14.311Z,99849.17
2019-04-25T06:06:17.854Z,99847.47
2019-04-25T06:09:28.954Z,99855.92
2019-04-25T06:12:39.831Z,99855.03
2019-04-25T06:15:45.115Z,99854.09
2019-04-25T06:19:14.087Z,99852.41
2019-04-25T06:22:23.355Z,99855.98
2019-04-25T06:25:34.191Z,99861.28
2019-04-25T06:28:34.592Z,99870.58
2019-04-25T06:31:38.266Z,99871.69
2019-04-25T06:34:55.754Z,99890.59
2019-04-25T06:37:55.178Z,99891.67
2019-04-25T06:40:58.774Z,99894.80
2019-04-25T06:44:06.458Z,99890.73
2019-04-25T06:47:15.142Z,99895.82
2019-04-25T06:50:18.766Z,99890.73
2019-04-25T06:53:24.183Z,99892.45
2019-04-25T06:56:27.669Z,99896.33
2019-04-25T06:59:32.342Z,99889.75
2019-04-25T07:02:36.708Z,99896.05
2019-04-25T07:05:40.887Z,99897.60
2019-04-25T07:08:49.217Z,99897.08
2019-04-25T07:11:53.877Z,99893.57
2019-04-25T07:14:57.482Z,99900.84
2019-04-25T07:18:03.800Z,99897.03
2019-04-25T07:21:07.586Z,99902.70
2019-04-25T07:24:11.351Z,99899.11
2019-04-25T07:27:19.304Z,99904.72
2019-04-25T07:30:48.539Z,99902.53
2019-04-25T07:33:43.764Z,99908.86
2019-04-25T07:36:47.340Z,99911.89
2019-04-25T07:39:51.029Z,99907.05
2019-04-25T07:42:54.631Z,99911.16
2019-04-25T07:45:58.292Z,99917.07
2019-04-25T07:49:03.448Z,99922.34
2019-04-25T07:52:07.181Z,99923.77
2019-04-25T07:55:11.255Z,99926.36
2019-04-25T07:58:14.806Z,99925.55
2019-04-25T08:01:18.849Z,99921.73
2019-04-25T08:04:23.579Z,99924.87
2019-04-25T08:07:28.100Z,99920.53
2019-04-25T08:10:34.772Z,99919.19
2019-04-25T08:13:46.197Z,99921.00
2019-04-25T08:16:51.790Z,99921.77
2019-04-25T08:19:55.577Z,99920.18
2019-04-25T08:23:01.652Z,99918.31
2019-04-25T08:26:05.426Z,99916.61
2019-04-25T08:29:09.131Z,99907.02
2019-04-25T08:32:14.232Z,99908.13
2019-04-25T08:35:18.132Z,99905.12
2019-04-25T08:38:23.745Z,99900.83
2019-04-25T08:41:27.037Z,99893.48
2019-04-25T08:44:31.613Z,99887.47
2019-04-25T08:47:37.303Z,99892.53
2019-04-25T08:50:45.577Z,99899.10
2019-04-25T08:53:50.824Z,99886.36
2019-04-25T08:56:56.062Z,99892.78
2019-04-25T09:00:01.297Z,99891.03
2019-04-25T09:03:06.653Z,99890.14
2019-04-25T09:06:13.207Z,99893.52
2019-04-25T09:09:16.839Z,99892.59
2019-04-25T09:12:20.423Z,99889.07
2019-04-25T09:15:24.338Z,99882.55
2019-04-25T09:18:28.021Z,99882.69
2019-04-25T09:21:33.215Z,99884.57
2019-04-25T09:24:38.095Z,99882.97
2019-04-25T09:27:43.768Z,99885.06
2019-04-25T09:30:47.832Z,99875.34
2019-04-25T09:33:54.168Z,99874.16
2019-04-25T09:36:58.816Z,99880.52
2019-04-25T09:40:04.307Z,99869.91
2019-04-25T09:43:07.841Z,99869.42
2019-04-25T09:46:13.341Z,99868.60
2019-04-25T09:49:24.064Z,99870.50
2019-04-25T09:52:27.664Z,99865.78
2019-04-25T09:55:36.120Z,99856.23
2019-04-25T09:58:42.101Z,99862.55
2019-04-25T10:01:48.697Z,99863.28
2019-04-25T10:04:52.272Z,99865.27
2019-04-25T10:07:55.934Z,99856.87
2019-04-25T10:10:59.510Z,99851.20
2019-04-25T10:14:24.526Z,99852.80
2019-04-25T10:17:28.356Z,99860.16
2019-04-25T10:20:33.360Z,99856.53
2019-04-25T10:23:37.442Z,99841.72
2019-04-25T10:26:41.888Z,99841.06
2019-04-25T10:29:50.912Z,99828.38
2019-04-25T10:32:51.371Z,99828.38
2019-04-25T10:35:59.591Z,99832.00
2019-04-25T10:39:07.849Z,99814.12
2019-04-25T10:42:06.157Z,99818.13
2019-04-25T10:45:21.315Z,99808.92
2019-04-25T10:48:16.342Z,99815.87
2019-04-25T10:51:19.954Z,99804.14
2019-04-25T10:54:23.553Z,99816.38
2019-04-25T10:57:27.638Z,99800.91
2019-04-25T11:00:40.556Z,99795.36
2019-04-25T11:03:51.943Z,99795.36
2019-04-25T11:07:25.334Z,99797.55
2019-04-25T11:10:10.189Z,99796.79
2019-04-25T11:31:29.316Z,99769.91
2019-04-25T11:41:25.308Z,99761.59
2019-04-25T11:44:30.579Z,99761.59
2019-04-25T11:44:30.581Z,99791.20
2019-04-25T11:47:37.158Z,99752.80
2019-04-25T11:50:48.887Z,99758.67
2019-04-25T11:53:51.635Z,99762.16
2019-04-25T11:56:56.493Z,99756.22
2019-04-25T12:00:00.225Z,99745.94
2019-04-25T12:03:04.649Z,99742.29
2019-04-25T12:06:08.238Z,99737.55
2019-04-25T12:09:13.759Z,99737.55
2019-04-25T12:12:17.484Z,99732.41
2019-04-25T12:15:21.163Z,99731.59
2019-04-25T12:18:25.631Z,99741.40
2019-04-25T12:21:29.294Z,99726.19
2019-04-25T12:24:33.481Z,99717.76
2019-04-25T12:27:37.300Z,99717.76
2019-04-25T12:30:40.962Z,99708.47
2019-04-25T12:33:47.242Z,99698.96
2019-04-25T12:36:50.559Z,99710.42
2019-04-25T12:39:54.261Z,99704.87
2019-04-25T12:42:57.849Z,99684.88
2019-04-25T12:46:11.986Z,99687.73
2019-04-25T12:49:15.603Z,99675.47
2019-04-25T12:52:19.333Z,99681.05
2019-04-25T12:55:24.612Z,99682.25
2019-04-25T12:58:28.212Z,99665.61
2019-04-25T13:01:33.310Z,99662.42
2019-04-25T13:04:37.478Z,99664.09
2019-04-25T13:07:41.086Z,99660.93
2019-04-25T13:10:44.704Z,99648.38
2019-04-25T13:13:49.969Z,99648.38
2019-04-25T13:16:56.443Z,99654.31
2019-04-25T13:20:00.046Z,99654.97
2019-04-25T13:23:04.785Z,99654.05
2019-04-25T13:26:09.405Z,99653.89
2019-04-25T13:29:14.714Z,99647.68
2019-04-25T13:32:25.844Z,99643.37
2019-04-25T13:35:40.495Z,99643.37
2019-04-25T13:38:45.299Z,99633.19
2019-04-25T13:41:49.076Z,99633.19
2019-04-25T13:44:54.239Z,99636.81
2019-04-25T13:47:57.999Z,99626.68
2019-04-25T13:51:01.613Z,99621.63
2019-04-25T13:54:05.761Z,99629.11
2019-04-25T13:57:09.533Z,99610.44
2019-04-25T14:00:14.268Z,99615.48
2019-04-25T14:03:18.394Z,99615.03
2019-04-25T14:06:22.494Z,99606.33
2019-04-25T14:09:27.121Z,99611.19
2019-04-25T14:12:30.787Z,99600.70
2019-04-25T14:15:37.237Z,99589.33
2019-04-25T14:18:45.247Z,99589.16
2019-04-25T14:21:48.909Z,99584.41
2019-04-25T14:24:54.985Z,99589.05
2019-04-25T14:27:57.911Z,99582.25
2019-04-25T14:31:02.165Z,99577.31
2019-04-25T14:34:07.203Z,99576.17
2019-04-25T14:37:14.951Z,99554.59
2019-04-25T14:40:18.600Z,99562.05
2019-04-25T14:43:26.200Z,99558.48
2019-04-25T14:46:29.975Z,99560.64
2019-04-25T14:49:33.704Z,99549.63
2019-04-25T14:52:37.343Z,99565.92
2019-04-25T14:55:45.756Z,99556.84
2019-04-25T14:58:49.660Z,99562.10
2019-04-25T15:01:55.120Z,99545.50
2019-04-25T15:04:58.728Z,99547.73
2019-04-25T15:08:02.925Z,99545.13
2019-04-25T15:11:08.258Z,99538.41
2019-04-25T15:14:11.911Z,99534.91
2019-04-25T15:17:15.553Z,99536.93
2019-04-25T15:20:19.454Z,99542.80
2019-04-25T15:23:24.133Z,99535.87
2019-04-25T15:26:28.947Z,99534.61
2019-04-25T15:29:32.690Z,99545.77
2019-04-25T15:32:37.462Z,99529.10
2019-04-25T15:35:51.370Z,99536.20
2019-04-25T15:39:12.957Z,99535.64
2019-04-25T15:42:27.451Z,99528.98
2019-04-25T15:45:41.689Z,99527.59
2019-04-25T15:48:46.888Z,99519.29
2019-04-25T15:51:53.201Z,99519.43
2019-04-25T15:55:06.543Z,99523.36
2019-04-25T15:58:02.168Z,99516.20
2019-04-25T16:01:06.983Z,99517.52
2019-04-25T16:04:10.601Z,99513.44
2019-04-25T16:07:14.558Z,99514.83
2019-04-25T16:10:18.324Z,99513.91
2019-04-25T16:13:21.919Z,99515.07
2019-04-25T16:16:26.750Z,99506.45
2019-04-25T16:19:31.552Z,99516.91
2019-04-25T16:22:35.277Z,99509.62
2019-04-25T16:25:39.053Z,99513.34
2019-04-25T16:28:42.678Z,99510.17
2019-04-25T16:31:46.284Z,99507.78
2019-04-25T16:34:49.880Z,99498.93
2019-04-25T16:37:53.506Z,99495.57
2019-04-25T16:40:57.426Z,99492.75
2019-04-25T16:44:02.773Z,99500.94
2019-04-25T16:47:15.282Z,99496.30
2019-04-25T16:50:19.606Z,99496.92
2019-04-25T16:53:27.236Z,99502.36
2019-04-25T16:56:34.391Z,99496.36
2019-04-25T16:59:47.497Z,99495.97
2019-04-25T17:02:51.465Z,99490.75
2019-04-25T17:05:55.072Z,99488.27
2019-04-25T17:08:59.266Z,99489.19
2019-04-25T17:12:03.553Z,99484.20
2019-04-25T17:15:18.191Z,99488.45
2019-04-25T17:18:41.793Z,99492.45
2019-04-25T17:21:48.170Z,99487.36
2019-04-25T17:24:59.539Z,99485.53
2019-04-25T17:28:08.180Z,99475.84
2019-04-25T17:31:20.627Z,99485.36
2019-04-25T17:34:43.800Z,99477.93
2019-04-25T17:38:05.681Z,99486.12
2019-04-25T17:41:13.867Z,99477.85
2019-04-25T17:44:34.249Z,99474.08
2019-04-25T17:47:55.703Z,99475.84
2019-04-25T17:51:03.962Z,99469.62
2019-04-25T17:54:07.751Z,99466.50
2019-04-25T17:57:12.929Z,99472.06
2019-04-25T18:00:37.995Z,99465.63
2019-04-25T18:03:41.914Z,99466.56
2019-04-25T18:06:45.527Z,99470.21
2019-04-25T18:09:50.761Z,99469.23
2019-04-25T18:12:54.419Z,99467.63
2019-04-25T18:15:59.783Z,99468.50
2019-04-25T18:19:08.449Z,99460.80
2019-04-25T18:22:28.848Z,99458.67
2019-04-25T18:25:50.833Z,99463.69
2019-04-25T18:29:14.375Z,99459.11
2019-04-25T18:32:17.996Z,99464.68
2019-04-25T18:35:38.798Z,99463.34
2019-04-25T18:38:42.550Z,99463.45
2019-04-25T18:41:57.106Z,99466.84
2019-04-25T18:45:00.780Z,99466.17
2019-04-25T18:48:05.101Z,99465.98
2019-04-25T18:51:08.813Z,99466.86
2019-04-25T18:54:14.081Z,99465.84
2019-04-25T18:57:19.379Z,99469.55
2019-04-25T19:00:29.066Z,99464.87
2019-04-25T19:03:38.176Z,99475.22
2019-04-25T19:06:54.613Z,99468.35
2019-04-25T19:09:47.869Z,99471.19
2019-04-25T19:13:12.039Z,99472.94
2019-04-25T19:16:06.997Z,99462.77
2019-04-25T19:19:10.669Z,99463.06
2019-04-25T19:22:14.348Z,99457.88
2019-04-25T19:25:18.036Z,99457.92
2019-04-25T19:28:21.654Z,99460.42
2019-04-25T19:34:41.236Z,99457.76
2019-04-25T19:37:48.582Z,99458.00
2019-04-25T19:41:00.639Z,99458.34
2019-04-25T19:44:05.951Z,99457.81
2019-04-25T19:47:09.705Z,99453.72
2019-04-25T19:50:13.381Z,99459.27
2019-04-25T19:53:18.552Z,99457.59
2019-04-25T19:56:22.165Z,99456.77
2019-04-25T19:59:25.828Z,99462.32
2019-04-25T20:02:31.155Z,99465.39
2019-04-25T20:05:52.560Z,99459.61
2019-04-25T20:09:25.639Z,99457.47
2019-04-25T20:12:50.569Z,99446.13
2019-04-25T20:15:51.958Z,99448.12
2019-04-25T20:18:55.566Z,99445.64
2019-04-25T20:21:59.218Z,99442.88
2019-04-25T20:25:03.353Z,99441.02
2019-04-25T20:28:10.122Z,99438.05
2019-04-25T20:31:13.968Z,99437.72
2019-04-25T20:34:17.761Z,99433.33
2019-04-25T20:37:24.557Z,99430.36
2019-04-25T20:40:28.347Z,99429.79
2019-04-25T20:43:32.061Z,99427.34
2019-04-25T20:46:38.186Z,99426.25
2019-04-25T20:50:02.379Z,99429.34
2019-04-25T20:53:06.173Z,99420.76
2019-04-25T20:56:09.925Z,99417.50
2019-04-25T20:59:13.595Z,99417.25
2019-04-25T21:02:17.210Z,99414.49
2019-04-25T21:05:20.912Z,99412.58
2019-04-25T21:08:24.674Z,99412.01
2019-04-25T21:11:28.265Z,99420.02
2019-04-25T21:14:39.180Z,99411.48
2019-04-25T21:17:54.238Z,99410.95
2019-04-25T21:21:12.761Z,99416.50
2019-04-25T21:24:16.634Z,99411.80
2019-04-25T21:27:21.998Z,99410.75
2019-04-25T21:30:25.674Z,99402.72
2019-04-25T21:33:29.378Z,99409.09
2019-04-25T21:36:33.150Z,99405.51
2019-04-25T21:39:45.822Z,99406.08
2019-04-25T21:42:51.849Z,99411.06
2019-04-25T21:45:56.847Z,99407.73
2019-04-25T21:49:01.300Z,99406.09
2019-04-25T21:52:14.261Z,99399.50
2019-04-25T21:55:18.765Z,99403.67
2019-04-25T21:58:22.767Z,99397.32
2019-04-25T22:01:39.757Z,99390.16
2019-04-25T22:04:50.797Z,99387.68
2019-04-25T22:08:00.515Z,99388.55
2019-04-25T22:11:06.872Z,99383.30
2019-04-25T22:14:11.293Z,99388.84
2019-04-25T22:17:15.512Z,99376.67
2019-04-25T22:20:19.490Z,99381.67
2019-04-25T22:23:23.097Z,99375.34
2019-04-25T22:26:27.104Z,99377.26
2019-04-25T22:29:32.757Z,99379.73
2019-04-25T22:32:43.471Z,99375.87
2019-04-25T22:35:57.747Z,99367.87
2019-04-25T22:39:12.201Z,99366.23
2019-04-25T22:42:16.389Z,99361.79
2019-04-25T22:45:20.013Z,99364.27
2019-04-25T22:48:28.161Z,99350.47
2019-04-25T22:51:31.773Z,99353.48
2019-04-25T22:54:35.591Z,99349.09
2019-04-25T22:57:41.071Z,99343.56
2019-04-25T23:00:44.770Z,99348.52
2019-04-25T23:03:52.825Z,99344.41
2019-04-25T23:06:56.695Z,99343.05
2019-04-25T23:10:00.433Z,99339.16
2019-04-25T23:13:04.678Z,99336.13
2019-04-25T23:16:09.855Z,99341.12
2019-04-25T23:19:13.511Z,99335.05
2019-04-25T23:22:17.334Z,99331.46
2019-04-25T23:25:22.930Z,99327.36
2019-04-25T23:28:30.207Z,99324.63
2019-04-25T23:31:39.868Z,99326.55
2019-04-25T23:34:43.653Z,99316.64
2019-04-25T23:37:47.300Z,99318.86
2019-04-25T23:40:55.510Z,99320.24
2019-04-25T23:43:59.320Z,99317.77
2019-04-25T23:47:03.504Z,99313.62
2019-04-25T23:50:10.534Z,99321.92
2019-04-25T23:53:15.785Z,99315.00
2019-04-25T23:56:27.380Z,99314.75
2019-04-25T23:59:28.368Z,99311.12
